sensor_id;sensor_type;location;lat;lon;timestamp;pressure;altitude;pressure_sealevel;temperature;humidity
44531;BME280;30240;47.418;0.700;2023-06-01T00:02:14;100378.662109375;;;18.8;61.58
44531;BME280;30240;47.418;0.700;2023-06-01T00:04:38;100378.662109375;;;18.8;61.58
44531;BME280;30240;47.418;0.700;2023-06-01T00:07:04;100374.39575195312;;;18.76;62.01
44531;BME280;30240;47.418;0.700;2023-06-01T00:09:28;100372.0947265625;;;18.76;62.17
44531;BME280;30240;47.418;0.700;2023-06-01T00:11:53;100370.17211914062;;;18.69;62.41
44531;BME280;30240;47.418;0.700;2023-06-01T00:14:19;100367.1875;;;18.66;62.54
44531;BME280;30240;47.418;0.700;2023-06-01T00:16:44;100367.1875;;;18.66;62.54
44531;BME280;30240;47.418;0.700;2023-06-01T00:19:09;100366.77856445312;;;18.64;62.83
44531;BME280;30240;47.418;0.700;2023-06-01T00:21:33;100370.81298828125;;;18.63;62.95
44531;BME280;30240;47.418;0.700;2023-06-01T00:23:58;100365.09399414062;;;18.59;63.21
44531;BME280;30240;47.418;0.700;2023-06-01T00:26:23;100364.2822265625;;;18.55;63.2
44531;BME280;30240;47.418;0.700;2023-06-01T00:28:49;100364.2822265625;;;18.55;63.2
44531;BME280;30240;47.418;0.700;2023-06-01T00:31:13;100367.236328125;;;18.52;63.54
44531;BME280;30240;47.418;0.700;2023-06-01T00:33:39;100361.93237304688;;;18.41;63.87
44531;BME280;30240;47.418;0.700;2023-06-01T00:36:04;100363.22021484375;;;18.38;64.19
44531;BME280;30240;47.418;0.700;2023-06-01T00:38:28;100358.0322265625;;;18.32;64.32
44531;BME280;30240;47.418;0.700;2023-06-01T00:40:54;100358.0322265625;;;18.32;64.32
44531;BME280;30240;47.418;0.700;2023-06-01T00:43:19;100358.28247070312;;;18.28;64.46
44531;BME280;30240;47.418;0.700;2023-06-01T00:45:44;100358.8134765625;;;18.2;64.81
44531;BME280;30240;47.418;0.700;2023-06-01T00:48:09;100349.83520507812;;;18.1;64.79
44531;BME280;30240;47.418;0.700;2023-06-01T00:50:34;100337.12768554688;;;18.12;64.8
44531;BME280;30240;47.418;0.700;2023-06-01T00:53:00;100337.12768554688;;;18.12;64.8
44531;BME280;30240;47.418;0.700;2023-06-01T00:55:24;100343.68896484375;;;18.15;64.52
44531;BME280;30240;47.418;0.700;2023-06-01T00:57:50;100343.27392578125;;;18.11;64.88
44531;BME280;30240;47.418;0.700;2023-06-01T01:00:14;100347.216796875;;;18.07;64.83
44531;BME280;30240;47.418;0.700;2023-06-01T01:02:40;100355.45043945312;;;18.11;64.93
44531;BME280;30240;47.418;0.700;2023-06-01T01:05:04;100355.45043945312;;;18.11;64.93
44531;BME280;30240;47.418;0.700;2023-06-01T01:07:38;100352.92358398438;;;18.08;64.94
44531;BME280;30240;47.418;0.700;2023-06-01T01:09:59;100356.6650390625;;;18.07;64.98
44531;BME280;30240;47.418;0.700;2023-06-01T01:10:04;100356.6650390625;;;18.07;64.98
44531;BME280;30240;47.418;0.700;2023-06-01T01:12:23;100355.74951171875;;;18.08;64.75
44531;BME280;30240;47.418;0.700;2023-06-01T01:14:48;100352.54516601562;;;18.0;65.02
44531;BME280;30240;47.418;0.700;2023-06-01T01:17:15;100357.67211914062;;;17.97;65.28
44531;BME280;30240;47.418;0.700;2023-06-01T01:19:52;100357.67211914062;;;17.97;65.28
44531;BME280;30240;47.418;0.700;2023-06-01T01:22:07;100357.67211914062;;;17.96;65.47
44531;BME280;30240;47.418;0.700;2023-06-01T01:22:13;100357.67211914062;;;17.96;65.47
44531;BME280;30240;47.418;0.700;2023-06-01T01:22:20;100357.67211914062;;;17.96;65.47
44531;BME280;30240;47.418;0.700;2023-06-01T01:24:31;100351.48315429688;;;17.9;65.46
44531;BME280;30240;47.418;0.700;2023-06-01T01:26:56;100358.08715820312;;;17.9;65.79
44531;BME280;30240;47.418;0.700;2023-06-01T01:29:20;100357.861328125;;;17.82;66.24
44531;BME280;30240;47.418;0.700;2023-06-01T01:31:49;100357.861328125;;;17.82;66.24
44531;BME280;30240;47.418;0.700;2023-06-01T01:34:09;100361.9384765625;;;17.72;66.63
44531;BME280;30240;47.418;0.700;2023-06-01T01:36:29;100360.888671875;;;17.62;67.17
44531;BME280;30240;47.418;0.700;2023-06-01T01:38:54;100370.25146484375;;;17.53;67.6
44531;BME280;30240;47.418;0.700;2023-06-01T01:41:19;100369.7021484375;;;17.52;68.12
44531;BME280;30240;47.418;0.700;2023-06-01T01:43:44;100369.7021484375;;;17.52;68.12
44531;BME280;30240;47.418;0.700;2023-06-01T01:46:13;100364.6240234375;;;17.34;68.58
44531;BME280;30240;47.418;0.700;2023-06-01T01:48:37;100361.16943359375;;;17.27;68.99
44531;BME280;30240;47.418;0.700;2023-06-01T01:51:03;100362.96997070312;;;17.16;69.38
44531;BME280;30240;47.418;0.700;2023-06-01T01:51:07;100362.96997070312;;;17.16;69.38
44531;BME280;30240;47.418;0.700;2023-06-01T01:53:32;100364.36767578125;;;17.14;69.54
44531;BME280;30240;47.418;0.700;2023-06-01T01:55:53;100364.36767578125;;;17.14;69.54
44531;BME280;30240;47.418;0.700;2023-06-01T01:58:16;100369.47021484375;;;17.07;69.64
44531;BME280;30240;47.418;0.700;2023-06-01T02:00:40;100368.18237304688;;;16.96;69.95
44531;BME280;30240;47.418;0.700;2023-06-01T02:03:12;100370.48950195312;;;16.96;70.19
44531;BME280;30240;47.418;0.700;2023-06-01T02:05:37;100369.89135742188;;;16.9;70.43
44531;BME280;30240;47.418;0.700;2023-06-01T02:07:54;100369.89135742188;;;16.9;70.43
44531;BME280;30240;47.418;0.700;2023-06-01T02:10:19;100371.78344726562;;;16.9;70.52
44531;BME280;30240;47.418;0.700;2023-06-01T02:12:44;100374.08447265625;;;16.76;70.84
44531;BME280;30240;47.418;0.700;2023-06-01T02:15:09;100376.220703125;;;16.78;70.98
44531;BME280;30240;47.418;0.700;2023-06-01T02:17:33;100368.34106445312;;;16.75;71.19
44531;BME280;30240;47.418;0.700;2023-06-01T02:19:59;100368.34106445312;;;16.75;71.19
44531;BME280;30240;47.418;0.700;2023-06-01T02:22:24;100371.81396484375;;;16.72;71.27
44531;BME280;30240;47.418;0.700;2023-06-01T02:24:49;100374.69482421875;;;16.68;71.48
44531;BME280;30240;47.418;0.700;2023-06-01T02:27:14;100377.53295898438;;;16.61;71.64
44531;BME280;30240;47.418;0.700;2023-06-01T02:29:39;100375.23193359375;;;16.59;71.41
44531;BME280;30240;47.418;0.700;2023-06-01T02:32:04;100375.23193359375;;;16.59;71.41
44531;BME280;30240;47.418;0.700;2023-06-01T02:34:28;100372.40600585938;;;16.62;71.5
44531;BME280;30240;47.418;0.700;2023-06-01T02:36:53;100375.1708984375;;;16.59;71.46
44531;BME280;30240;47.418;0.700;2023-06-01T02:39:18;100371.28295898438;;;16.57;71.4
44531;BME280;30240;47.418;0.700;2023-06-01T02:41:44;100374.658203125;;;16.61;71.42
44531;BME280;30240;47.418;0.700;2023-06-01T02:44:08;100374.658203125;;;16.61;71.42
44531;BME280;30240;47.418;0.700;2023-06-01T02:46:33;100372.5341796875;;;16.58;71.48
44531;BME280;30240;47.418;0.700;2023-06-01T02:48:59;100369.7509765625;;;16.52;71.6
44531;BME280;30240;47.418;0.700;2023-06-01T02:51:23;100373.08349609375;;;16.43;71.73
44531;BME280;30240;47.418;0.700;2023-06-01T02:53:48;100372.35107421875;;;16.38;71.96
44531;BME280;30240;47.418;0.700;2023-06-01T02:56:14;100368.34106445312;;;16.38;71.78
44531;BME280;30240;47.418;0.700;2023-06-01T02:58:38;100368.34106445312;;;16.38;71.78
44531;BME280;30240;47.418;0.700;2023-06-01T03:01:03;100369.482421875;;;16.41;71.66
44531;BME280;30240;47.418;0.700;2023-06-01T03:03:29;100369.86083984375;;;16.43;71.54
44531;BME280;30240;47.418;0.700;2023-06-01T03:05:54;100366.29028320312;;;16.44;71.46
44531;BME280;30240;47.418;0.700;2023-06-01T03:08:19;100362.51831054688;;;16.47;71.35
44531;BME280;30240;47.418;0.700;2023-06-01T03:10:44;100362.51831054688;;;16.47;71.35
44531;BME280;30240;47.418;0.700;2023-06-01T03:13:08;100364.70336914062;;;16.48;70.97
44531;BME280;30240;47.418;0.700;2023-06-01T03:15:33;100356.8115234375;;;16.43;71.08
44531;BME280;30240;47.418;0.700;2023-06-01T03:17:58;100368.28002929688;;;16.4;71.32
44531;BME280;30240;47.418;0.700;2023-06-01T03:20:24;100367.46826171875;;;16.38;71.23
44531;BME280;30240;47.418;0.700;2023-06-01T03:22:48;100367.46826171875;;;16.38;71.23
44531;BME280;30240;47.418;0.700;2023-06-01T03:25:13;100365.03295898438;;;16.38;71.27
44531;BME280;30240;47.418;0.700;2023-06-01T03:27:39;100366.82739257812;;;16.31;71.29
44531;BME280;30240;47.418;0.700;2023-06-01T03:30:04;100363.36059570312;;;16.24;71.71
44531;BME280;30240;47.418;0.700;2023-06-01T03:32:29;100360.06469726562;;;16.16;71.85
44531;BME280;30240;47.418;0.700;2023-06-01T03:34:54;100360.06469726562;;;16.16;71.85
44531;BME280;30240;47.418;0.700;2023-06-01T03:37:18;100364.1845703125;;;16.28;71.95
44531;BME280;30240;47.418;0.700;2023-06-01T03:39:44;100365.32592773438;;;16.2;71.83
44531;BME280;30240;47.418;0.700;2023-06-01T03:42:09;100368.60961914062;;;16.16;72.08
44531;BME280;30240;47.418;0.700;2023-06-01T03:44:33;100368.28002929688;;;16.06;72.37
44531;BME280;30240;47.418;0.700;2023-06-01T03:46:58;100368.28002929688;;;16.06;72.37
44531;BME280;30240;47.418;0.700;2023-06-01T03:49:23;100372.49145507812;;;16.05;72.36
44531;BME280;30240;47.418;0.700;2023-06-01T03:51:48;100372.59521484375;;;16.05;72.28
44531;BME280;30240;47.418;0.700;2023-06-01T03:54:13;100373.85864257812;;;16.01;72.59
44531;BME280;30240;47.418;0.700;2023-06-01T03:56:38;100370.4833984375;;;15.99;72.6
44531;BME280;30240;47.418;0.700;2023-06-01T03:59:04;100370.4833984375;;;15.99;72.6
44531;BME280;30240;47.418;0.700;2023-06-01T04:01:28;100369.34204101562;;;16.03;72.5
44531;BME280;30240;47.418;0.700;2023-06-01T04:03:53;100370.5810546875;;;15.98;72.44
44531;BME280;30240;47.418;0.700;2023-06-01T04:06:18;100379.35791015625;;;15.92;72.61
44531;BME280;30240;47.418;0.700;2023-06-01T04:08:44;100385.17456054688;;;15.86;72.87
44531;BME280;30240;47.418;0.700;2023-06-01T04:11:08;100385.17456054688;;;15.86;72.87
44531;BME280;30240;47.418;0.700;2023-06-01T04:13:33;100382.0556640625;;;15.89;72.97
44531;BME280;30240;47.418;0.700;2023-06-01T04:15:58;100386.90795898438;;;15.91;73.03
44531;BME280;30240;47.418;0.700;2023-06-01T04:18:23;100392.19360351562;;;15.82;73.31
44531;BME280;30240;47.418;0.700;2023-06-01T04:20:48;100396.97875976562;;;15.84;73.31
44531;BME280;30240;47.418;0.700;2023-06-01T04:23:13;100396.97875976562;;;15.84;73.31
44531;BME280;30240;47.418;0.700;2023-06-01T04:25:38;100422.40600585938;;;15.99;73.04
44531;BME280;30240;47.418;0.700;2023-06-01T04:28:03;100429.443359375;;;15.95;72.78
44531;BME280;30240;47.418;0.700;2023-06-01T04:30:28;100420.20263671875;;;15.91;73.14
44531;BME280;30240;47.418;0.700;2023-06-01T04:32:53;100426.45263671875;;;15.98;73.06
44531;BME280;30240;47.418;0.700;2023-06-01T04:35:18;100436.7919921875;;;15.93;73.14
44531;BME280;30240;47.418;0.700;2023-06-01T04:37:43;100436.7919921875;;;15.93;73.14
44531;BME280;30240;47.418;0.700;2023-06-01T04:40:10;100434.25903320312;;;15.82;73.53
44531;BME280;30240;47.418;0.700;2023-06-01T04:42:34;100421.76513671875;;;15.79;73.8
44531;BME280;30240;47.418;0.700;2023-06-01T04:44:59;100420.361328125;;;15.78;74.04
44531;BME280;30240;47.418;0.700;2023-06-01T04:47:23;100416.064453125;;;15.69;74.42
44531;BME280;30240;47.418;0.700;2023-06-01T04:49:48;100416.064453125;;;15.69;74.42
44531;BME280;30240;47.418;0.700;2023-06-01T04:52:13;100419.0185546875;;;15.75;74.25
44531;BME280;30240;47.418;0.700;2023-06-01T04:54:39;100414.90478515625;;;15.81;74.14
44531;BME280;30240;47.418;0.700;2023-06-01T04:57:04;100421.96044921875;;;15.93;73.77
44531;BME280;30240;47.418;0.700;2023-06-01T04:59:28;100420.90454101562;;;15.86;73.68
44531;BME280;30240;47.418;0.700;2023-06-01T05:01:53;100420.90454101562;;;15.86;73.68
44531;BME280;30240;47.418;0.700;2023-06-01T05:04:19;100426.76391601562;;;15.96;73.46
44531;BME280;30240;47.418;0.700;2023-06-01T05:06:43;100425.93994140625;;;15.93;73.81
44531;BME280;30240;47.418;0.700;2023-06-01T05:09:08;100428.48510742188;;;15.95;73.76
44531;BME280;30240;47.418;0.700;2023-06-01T05:11:33;100433.86840820312;;;16.01;73.73
44531;BME280;30240;47.418;0.700;2023-06-01T05:13:58;100433.86840820312;;;16.01;73.73
44531;BME280;30240;47.418;0.700;2023-06-01T05:16:24;100433.7890625;;;16.09;73.6
44531;BME280;30240;47.418;0.700;2023-06-01T05:18:48;100432.77587890625;;;16.01;73.94
44531;BME280;30240;47.418;0.700;2023-06-01T05:21:13;100424.52392578125;;;16.02;73.73
44531;BME280;30240;47.418;0.700;2023-06-01T05:23:38;100430.99975585938;;;16.08;73.56
44531;BME280;30240;47.418;0.700;2023-06-01T05:26:04;100430.99975585938;;;16.08;73.56
44531;BME280;30240;47.418;0.700;2023-06-01T05:28:29;100428.1005859375;;;16.08;73.5
44531;BME280;30240;47.418;0.700;2023-06-01T05:30:53;100434.85717773438;;;16.19;73.12
44531;BME280;30240;47.418;0.700;2023-06-01T05:33:18;100433.48388671875;;;16.1;73.22
44531;BME280;30240;47.418;0.700;2023-06-01T05:35:44;100431.67114257812;;;16.17;73.2
44531;BME280;30240;47.418;0.700;2023-06-01T05:38:09;100431.67114257812;;;16.17;73.2
44531;BME280;30240;47.418;0.700;2023-06-01T05:40:34;100429.87670898438;;;16.21;73.09
44531;BME280;30240;47.418;0.700;2023-06-01T05:42:59;100431.95190429688;;;16.38;72.85
44531;BME280;30240;47.418;0.700;2023-06-01T05:45:24;100433.642578125;;;16.4;72.84
44531;BME280;30240;47.418;0.700;2023-06-01T05:47:49;100439.87426757812;;;16.52;72.43
44531;BME280;30240;47.418;0.700;2023-06-01T05:50:14;100439.87426757812;;;16.52;72.43
44531;BME280;30240;47.418;0.700;2023-06-01T05:52:39;100442.22412109375;;;16.67;72.36
44531;BME280;30240;47.418;0.700;2023-06-01T05:55:04;100446.28295898438;;;16.72;71.71
44531;BME280;30240;47.418;0.700;2023-06-01T05:57:29;100447.98583984375;;;16.72;71.83
44531;BME280;30240;47.418;0.700;2023-06-01T05:59:54;100441.68701171875;;;16.97;71.66
44531;BME280;30240;47.418;0.700;2023-06-01T06:02:19;100442.15698242188;;;17.04;71.06
44531;BME280;30240;47.418;0.700;2023-06-01T06:04:44;100442.15698242188;;;17.04;71.06
44531;BME280;30240;47.418;0.700;2023-06-01T06:07:09;100443.32885742188;;;17.02;71.16
44531;BME280;30240;47.418;0.700;2023-06-01T06:09:34;100440.51513671875;;;17.14;71.02
44531;BME280;30240;47.418;0.700;2023-06-01T06:11:59;100446.11206054688;;;17.16;70.71
44531;BME280;30240;47.418;0.700;2023-06-01T06:14:24;100454.27856445312;;;17.31;70.3
44531;BME280;30240;47.418;0.700;2023-06-01T06:16:49;100454.27856445312;;;17.31;70.3
44531;BME280;30240;47.418;0.700;2023-06-01T06:19:16;100455.0537109375;;;17.55;69.68
44531;BME280;30240;47.418;0.700;2023-06-01T06:21:39;100451.45263671875;;;17.49;69.69
44531;BME280;30240;47.418;0.700;2023-06-01T06:24:06;100458.06274414062;;;17.69;69.85
44531;BME280;30240;47.418;0.700;2023-06-01T06:26:29;100455.35888671875;;;17.59;69.43
44531;BME280;30240;47.418;0.700;2023-06-01T06:28:54;100455.35888671875;;;17.59;69.43
44531;BME280;30240;47.418;0.700;2023-06-01T06:31:19;100451.37329101562;;;17.73;69.32
44531;BME280;30240;47.418;0.700;2023-06-01T06:33:44;100451.67846679688;;;17.82;68.87
44531;BME280;30240;47.418;0.700;2023-06-01T06:36:08;100449.13330078125;;;17.75;69.05
44531;BME280;30240;47.418;0.700;2023-06-01T06:38:34;100456.591796875;;;17.85;68.83
44531;BME280;30240;47.418;0.700;2023-06-01T06:40:59;100456.591796875;;;17.85;68.83
44531;BME280;30240;47.418;0.700;2023-06-01T06:43:24;100454.15649414062;;;17.89;68.49
44531;BME280;30240;47.418;0.700;2023-06-01T06:45:49;100458.26416015625;;;18.25;68.11
44531;BME280;30240;47.418;0.700;2023-06-01T06:48:14;100462.744140625;;;18.29;67.52
44531;BME280;30240;47.418;0.700;2023-06-01T06:50:39;100458.99047851562;;;18.27;68.1
44531;BME280;30240;47.418;0.700;2023-06-01T06:53:03;100458.99047851562;;;18.27;68.1
44531;BME280;30240;47.418;0.700;2023-06-01T06:55:29;100466.796875;;;18.69;66.96
44531;BME280;30240;47.418;0.700;2023-06-01T06:57:54;100469.84252929688;;;18.74;66.45
44531;BME280;30240;47.418;0.700;2023-06-01T07:00:19;100462.98217773438;;;18.66;66.36
44531;BME280;30240;47.418;0.700;2023-06-01T07:02:44;100475.44555664062;;;18.62;66.43
44531;BME280;30240;47.418;0.700;2023-06-01T07:05:09;100475.44555664062;;;18.62;66.43
44531;BME280;30240;47.418;0.700;2023-06-01T07:07:34;100470.81298828125;;;18.62;66.53
44531;BME280;30240;47.418;0.700;2023-06-01T07:09:59;100474.59106445312;;;18.83;65.99
44531;BME280;30240;47.418;0.700;2023-06-01T07:12:24;100475.1220703125;;;18.9;65.42
44531;BME280;30240;47.418;0.700;2023-06-01T07:14:49;100480.76782226562;;;19.02;65.5
44531;BME280;30240;47.418;0.700;2023-06-01T07:17:14;100480.76782226562;;;19.02;65.5
44531;BME280;30240;47.418;0.700;2023-06-01T07:19:39;100473.77319335938;;;19.28;65.43
44531;BME280;30240;47.418;0.700;2023-06-01T07:22:04;100475.64697265625;;;19.43;65.14
44531;BME280;30240;47.418;0.700;2023-06-01T07:24:29;100471.96655273438;;;19.46;65.13
44531;BME280;30240;47.418;0.700;2023-06-01T07:26:54;100476.54418945312;;;19.82;63.8
44531;BME280;30240;47.418;0.700;2023-06-01T07:29:19;100476.54418945312;;;19.82;63.8
44531;BME280;30240;47.418;0.700;2023-06-01T07:31:44;100484.17358398438;;;20.2;63.27
44531;BME280;30240;47.418;0.700;2023-06-01T07:34:09;100482.9345703125;;;20.36;62.5
44531;BME280;30240;47.418;0.700;2023-06-01T07:36:33;100478.87573242188;;;20.32;62.44
44531;BME280;30240;47.418;0.700;2023-06-01T07:38:59;100474.57885742188;;;20.33;62.9
44531;BME280;30240;47.418;0.700;2023-06-01T07:41:24;100472.93090820312;;;20.5;62.58
44531;BME280;30240;47.418;0.700;2023-06-01T07:43:49;100472.93090820312;;;20.5;62.58
44531;BME280;30240;47.418;0.700;2023-06-01T07:46:14;100477.86865234375;;;21.06;61.43
44531;BME280;30240;47.418;0.700;2023-06-01T07:48:38;100473.52294921875;;;21.2;60.43
44531;BME280;30240;47.418;0.700;2023-06-01T07:51:04;100475.89721679688;;;21.16;60.51
44531;BME280;30240;47.418;0.700;2023-06-01T07:53:29;100470.08056640625;;;21.47;59.6
44531;BME280;30240;47.418;0.700;2023-06-01T07:55:54;100470.08056640625;;;21.47;59.6
44531;BME280;30240;47.418;0.700;2023-06-01T07:58:19;100466.30249023438;;;21.61;59.63
44531;BME280;30240;47.418;0.700;2023-06-01T08:00:44;100464.43481445312;;;21.57;59.44
44531;BME280;30240;47.418;0.700;2023-06-01T08:03:08;100459.2529296875;;;21.89;58.93
44531;BME280;30240;47.418;0.700;2023-06-01T08:05:34;100462.890625;;;22.06;58.5
44531;BME280;30240;47.418;0.700;2023-06-01T08:07:58;100462.890625;;;22.06;58.5
44531;BME280;30240;47.418;0.700;2023-06-01T08:10:23;100459.423828125;;;22.27;58.21
44531;BME280;30240;47.418;0.700;2023-06-01T08:12:48;100459.78393554688;;;22.9;57.16
44531;BME280;30240;47.418;0.700;2023-06-01T08:15:14;100467.88940429688;;;23.27;56.42
44531;BME280;30240;47.418;0.700;2023-06-01T08:17:39;100470.9228515625;;;23.28;55.56
44531;BME280;30240;47.418;0.700;2023-06-01T08:20:04;100470.9228515625;;;23.28;55.56
44531;BME280;30240;47.418;0.700;2023-06-01T08:22:29;100471.68579101562;;;23.77;54.32
44531;BME280;30240;47.418;0.700;2023-06-01T08:24:54;100476.59301757812;;;24.29;53.67
44531;BME280;30240;47.418;0.700;2023-06-01T08:27:20;100475.146484375;;;24.04;54.4
44531;BME280;30240;47.418;0.700;2023-06-01T08:29:45;100472.5341796875;;;24.14;53.76
44531;BME280;30240;47.418;0.700;2023-06-01T08:32:09;100472.5341796875;;;24.14;53.76
44531;BME280;30240;47.418;0.700;2023-06-01T08:34:34;100474.45068359375;;;23.8;54.44
44531;BME280;30240;47.418;0.700;2023-06-01T08:36:59;100470.62377929688;;;24.86;53.39
44531;BME280;30240;47.418;0.700;2023-06-01T08:39:24;100468.21899414062;;;25.08;52.05
44531;BME280;30240;47.418;0.700;2023-06-01T08:42:06;100467.4072265625;;;26.12;49.7
44531;BME280;30240;47.418;0.700;2023-06-01T08:44:15;100467.4072265625;;;26.12;49.7
44531;BME280;30240;47.418;0.700;2023-06-01T08:46:41;100462.39013671875;;;26.09;49.99
44531;BME280;30240;47.418;0.700;2023-06-01T08:49:05;100458.69750976562;;;26.68;49.09
44531;BME280;30240;47.418;0.700;2023-06-01T08:51:32;100459.68627929688;;;26.15;49.66
44531;BME280;30240;47.418;0.700;2023-06-01T08:53:56;100454.79736328125;;;26.36;49.1
44531;BME280;30240;47.418;0.700;2023-06-01T08:56:19;100454.79736328125;;;26.36;49.1
44531;BME280;30240;47.418;0.700;2023-06-01T08:58:44;100452.08740234375;;;25.67;50.33
44531;BME280;30240;47.418;0.700;2023-06-01T09:01:09;100451.64794921875;;;27.07;48.84
44531;BME280;30240;47.418;0.700;2023-06-01T09:03:33;100451.14135742188;;;26.88;48.67
44531;BME280;30240;47.418;0.700;2023-06-01T09:05:59;100453.35693359375;;;27.4;47.59
44531;BME280;30240;47.418;0.700;2023-06-01T09:08:24;100446.34399414062;;;27.51;47.36
44531;BME280;30240;47.418;0.700;2023-06-01T09:10:49;100446.34399414062;;;27.51;47.36
44531;BME280;30240;47.418;0.700;2023-06-01T09:13:30;100438.92211914062;;;27.53;46.92
44531;BME280;30240;47.418;0.700;2023-06-01T09:15:51;100438.64135742188;;;27.3;48.1
44531;BME280;30240;47.418;0.700;2023-06-01T09:18:05;100437.24365234375;;;27.3;48.22
44531;BME280;30240;47.418;0.700;2023-06-01T09:20:29;100437.7197265625;;;27.79;47.02
44531;BME280;30240;47.418;0.700;2023-06-01T09:22:54;100437.7197265625;;;27.79;47.02
44531;BME280;30240;47.418;0.700;2023-06-01T09:25:23;100439.65454101562;;;28.92;44.74
44531;BME280;30240;47.418;0.700;2023-06-01T09:27:46;100439.4287109375;;;28.63;45.33
44531;BME280;30240;47.418;0.700;2023-06-01T09:30:09;100432.470703125;;;29.25;44.06
44531;BME280;30240;47.418;0.700;2023-06-01T09:32:33;100434.765625;;;29.58;44.03
44531;BME280;30240;47.418;0.700;2023-06-01T09:34:58;100434.765625;;;29.58;44.03
44531;BME280;30240;47.418;0.700;2023-06-01T09:37:23;100435.57739257812;;;29.37;43.95
44531;BME280;30240;47.418;0.700;2023-06-01T09:39:49;100434.60693359375;;;28.48;46.14
44531;BME280;30240;47.418;0.700;2023-06-01T09:42:14;100428.93676757812;;;28.89;45.42
44531;BME280;30240;47.418;0.700;2023-06-01T09:44:40;100425.9033203125;;;29.41;44.61
44531;BME280;30240;47.418;0.700;2023-06-01T09:47:05;100425.9033203125;;;29.41;44.61
44531;BME280;30240;47.418;0.700;2023-06-01T09:49:30;100426.94702148438;;;29.41;43.22
44531;BME280;30240;47.418;0.700;2023-06-01T09:52:09;100421.17309570312;;;29.73;44.12
44531;BME280;30240;47.418;0.700;2023-06-01T09:54:21;100424.82299804688;;;30.77;42.94
44531;BME280;30240;47.418;0.700;2023-06-01T09:56:44;100417.21801757812;;;30.33;42.83
44531;BME280;30240;47.418;0.700;2023-06-01T09:59:08;100417.21801757812;;;30.33;42.83
44531;BME280;30240;47.418;0.700;2023-06-01T10:01:34;100415.0146484375;;;30.21;43.4
44531;BME280;30240;47.418;0.700;2023-06-01T10:04:00;100414.98413085938;;;28.96;45.56
44531;BME280;30240;47.418;0.700;2023-06-01T10:06:25;100416.70532226562;;;29.32;45.12
44531;BME280;30240;47.418;0.700;2023-06-01T10:08:49;100415.625;;;30.38;42.6
44531;BME280;30240;47.418;0.700;2023-06-01T10:11:13;100415.625;;;30.38;42.6
44531;BME280;30240;47.418;0.700;2023-06-01T10:13:39;100417.26684570312;;;29.88;44.68
44531;BME280;30240;47.418;0.700;2023-06-01T10:16:09;100419.62280273438;;;29.69;44.2
44531;BME280;30240;47.418;0.700;2023-06-01T10:18:30;100414.0380859375;;;30.28;43.53
44531;BME280;30240;47.418;0.700;2023-06-01T10:20:55;100414.25170898438;;;29.96;43.36
44531;BME280;30240;47.418;0.700;2023-06-01T10:23:19;100414.25170898438;;;29.96;43.36
44531;BME280;30240;47.418;0.700;2023-06-01T10:25:46;100414.78271484375;;;31.22;42.62
44531;BME280;30240;47.418;0.700;2023-06-01T10:28:10;100412.90893554688;;;30.2;42.85
44531;BME280;30240;47.418;0.700;2023-06-01T10:30:34;100407.61108398438;;;30.32;42.69
44531;BME280;30240;47.418;0.700;2023-06-01T10:32:58;100404.93774414062;;;31.18;41.1
44531;BME280;30240;47.418;0.700;2023-06-01T10:35:51;100404.93774414062;;;31.18;41.1
44531;BME280;30240;47.418;0.700;2023-06-01T10:38:26;100410.60791015625;;;31.69;40.57
44531;BME280;30240;47.418;0.700;2023-06-01T10:40:19;100408.544921875;;;31.19;40.75
44531;BME280;30240;47.418;0.700;2023-06-01T10:42:39;100405.93872070312;;;31.71;39.9
44531;BME280;30240;47.418;0.700;2023-06-01T10:45:04;100404.9560546875;;;31.14;40.94
44531;BME280;30240;47.418;0.700;2023-06-01T10:47:47;100400.54931640625;;;30.56;41.97
44531;BME280;30240;47.418;0.700;2023-06-01T10:50:06;100400.54931640625;;;30.56;41.97
44531;BME280;30240;47.418;0.700;2023-06-01T10:52:26;100402.54516601562;;;31.92;39.95
44531;BME280;30240;47.418;0.700;2023-06-01T10:54:44;100387.109375;;;31.69;39.38
44531;BME280;30240;47.418;0.700;2023-06-01T10:57:21;100394.34204101562;;;32.15;39.66
44531;BME280;30240;47.418;0.700;2023-06-01T10:59:34;100392.12646484375;;;32.25;38.67
44531;BME280;30240;47.418;0.700;2023-06-01T11:02:04;100392.12646484375;;;32.25;38.67
44531;BME280;30240;47.418;0.700;2023-06-01T11:04:36;100396.03271484375;;;32.52;39.16
44531;BME280;30240;47.418;0.700;2023-06-01T11:06:49;100395.20263671875;;;32.61;38.83
44531;BME280;30240;47.418;0.700;2023-06-01T11:09:14;100388.88549804688;;;32.52;39.31
44531;BME280;30240;47.418;0.700;2023-06-01T11:12:01;100391.064453125;;;30.47;41.2
44531;BME280;30240;47.418;0.700;2023-06-01T11:14:08;100391.064453125;;;30.47;41.2